Charlevoix, MI

4:47 PM EDT on May 24, 2017 (GMT -0400)
Charlevoix Municipal

Weather History for KCVX - October, 2011

Change the Weather History Date:

Saturday, October 15, 2011

  Actual Average Record
Temperature  
Mean Temperature 47 °F -  
Max Temperature 50 °F 55 °F 63 °F (2016)
Min Temperature 44 °F 44 °F 39 °F (2002)
Degree Days  
Heating Degree Days 18    
Moisture  
Dew Point 40 °F    
Average Humidity 78    
Maximum Humidity 93    
Minimum Humidity 54    
Precipitation  
Precipitation 0.00 in - - ()
Sea Level Pressure  
Sea Level Pressure 29.44 in    
Wind  
Wind Speed 27 mph (West)    
Max Wind Speed 36 mph    
Max Gust Speed 46 mph    
Visibility 8 miles    
Events Rain    
Averages and records for this station are not official NWS values.
T = Trace of Precipitation, MM = Missing Value Source: NWS Daily Summary

Daily Weather History Graph

Daily Weather History Graph

Search for Another Location

Airport or City:

Trip Planner

Search our weather history database for the weather conditions in past years. The results will help you decide how hot, cold, wet, or windy it might be!

Date:

Astronomy

Oct. 15, 2011 Rise Set
Actual Time 7:56 AM EDT 6:56 PM EDT
Civil Twilight 7:27 AM EDT 7:25 PM EDT
Nautical Twilight 6:52 AM EDT 8:00 PM EDT
Astronomical Twilight 6:18 AM EDT 8:34 PM EDT
Moon 8:40 PM EDT (10/15) 11:31 AM EDT (10/15)
Length of Visible Light 11h 58m
Length of Day
10h 59m
Waning Gibbous, 89% of the Moon is Illuminated
Oct 15
Waning Gibbous
Oct 19
Last Quarter
Oct 26
New
Nov 2
First Quarter
Nov 10
Full

Hourly Weather History & Observations

Time (EDT) Temp. Windchill Dew Point Humidity Pressure Visibility Wind Dir Wind Speed Gust Speed Precip Events Conditions
12:14 AM 46.4 °F 38.3 °F 42.8 °F 87% 29.34 in 7.0 mi West 23.0 mph 31.1 mph N/A Rain Rain
12:35 AM 46.4 °F 38.1 °F 42.8 °F 87% 29.33 in 7.0 mi West 24.2 mph 36.8 mph N/A   Drizzle
12:54 AM 46.4 °F 38.1 °F 42.8 °F 87% 29.33 in 7.0 mi West 24.2 mph 34.5 mph N/A Rain Rain
1:14 AM 46.4 °F 38.1 °F 42.8 °F 87% 29.33 in 7.0 mi West 24.2 mph 36.8 mph N/A Rain Rain
1:35 AM 46.4 °F 37.5 °F 42.8 °F 87% 29.32 in 7.0 mi West 27.6 mph 33.4 mph N/A Rain Light Rain
2:14 AM 46.4 °F 37.7 °F 41.0 °F 81% 29.32 in 7.0 mi West 26.5 mph 36.8 mph N/A Rain Light Rain
2:35 AM 44.6 °F 34.7 °F 41.0 °F 87% 29.32 in 7.0 mi West 29.9 mph 36.8 mph N/A Rain Light Rain
2:54 AM 44.6 °F 34.7 °F 41.0 °F 87% 29.32 in 7.0 mi West 29.9 mph 36.8 mph N/A   Drizzle
3:15 AM 46.4 °F 37.7 °F 41.0 °F 81% 29.32 in 10.0 mi West 26.5 mph 33.4 mph N/A   Light Drizzle
3:34 AM 44.6 °F 35.1 °F 41.0 °F 87% 29.32 in 7.0 mi West 27.6 mph 36.8 mph N/A   Light Drizzle
3:54 AM 44.6 °F 34.6 °F 42.8 °F 93% 29.32 in 7.0 mi West 31.1 mph 34.5 mph N/A Rain Light Rain
4:15 AM 44.6 °F 34.9 °F 42.8 °F 93% 29.32 in 7.0 mi West 28.8 mph 34.5 mph N/A Rain Light Rain
4:34 AM 44.6 °F 35.7 °F 41.0 °F 87% 29.32 in 7.0 mi West 24.2 mph 40.3 mph N/A Rain Light Rain
4:55 AM 44.6 °F 34.6 °F 41.0 °F 87% 29.33 in 7.0 mi West 31.1 mph 41.4 mph N/A Rain Light Rain
5:14 AM 44.6 °F 35.3 °F 41.0 °F 87% 29.33 in 7.0 mi West 26.5 mph 40.3 mph N/A Rain Rain
5:34 AM 44.6 °F 34.7 °F 41.0 °F 87% 29.34 in 7.0 mi West 29.9 mph 43.7 mph N/A Rain Rain
5:55 AM 44.6 °F 34.2 °F 41.0 °F 87% 29.34 in 7.0 mi West 33.4 mph 43.7 mph N/A Rain Light Rain
6:14 AM 44.6 °F 34.9 °F 41.0 °F 87% 29.35 in 5.0 mi WNW 28.8 mph 41.4 mph N/A Rain Rain
6:34 AM 44.6 °F 34.6 °F 41.0 °F 87% 29.35 in 5.0 mi West 31.1 mph 39.1 mph N/A Rain Light Rain
6:55 AM 44.6 °F 34.4 °F 41.0 °F 87% 29.36 in 7.0 mi West 32.2 mph 42.6 mph N/A Rain Light Rain
7:14 AM 44.6 °F 34.7 °F 41.0 °F 87% 29.36 in 5.0 mi West 29.9 mph 41.4 mph N/A Rain Light Rain
7:34 AM 44.6 °F 34.6 °F 41.0 °F 87% 29.37 in 5.0 mi West 31.1 mph 39.1 mph N/A Rain Rain
7:55 AM 44.6 °F 34.7 °F 41.0 °F 87% 29.37 in 7.0 mi WNW 29.9 mph 41.4 mph N/A Rain Rain
8:14 AM 44.6 °F 34.6 °F 41.0 °F 87% 29.37 in 5.0 mi WNW 31.1 mph 41.4 mph N/A Rain Rain
8:34 AM 44.6 °F 35.1 °F 41.0 °F 87% 29.38 in 5.0 mi WNW 27.6 mph 38.0 mph N/A Rain Light Rain
9:14 AM 44.6 °F 34.9 °F 41.0 °F 87% 29.40 in 5.0 mi WNW 28.8 mph 39.1 mph N/A Rain Light Rain
9:34 AM 44.6 °F 35.1 °F 42.8 °F 93% 29.41 in 5.0 mi West 27.6 mph 38.0 mph N/A Rain Light Rain
9:55 AM 44.6 °F 34.6 °F 42.8 °F 93% 29.42 in 5.0 mi WNW 31.1 mph 43.7 mph N/A Rain Light Rain
10:14 AM 44.6 °F 34.6 °F 41.0 °F 87% 29.42 in 7.0 mi West 31.1 mph 39.1 mph N/A Rain Light Rain
10:35 AM 44.6 °F 35.1 °F 41.0 °F 87% 29.43 in 10.0 mi West 27.6 mph 38.0 mph N/A Rain Light Rain
10:55 AM 44.6 °F 35.3 °F 41.0 °F 87% 29.44 in 10.0 mi WNW 26.5 mph 38.0 mph N/A Rain Light Rain
11:14 AM 44.6 °F 34.9 °F 41.0 °F 87% 29.44 in 10.0 mi West 28.8 mph 39.1 mph N/A Rain Rain
11:35 AM 44.6 °F 34.1 °F 39.2 °F 81% 29.45 in 10.0 mi West 34.5 mph 42.6 mph N/A Rain Light Rain
11:54 AM 44.6 °F 34.6 °F 39.2 °F 81% 29.46 in 10.0 mi WNW 31.1 mph 39.1 mph N/A Rain Light Rain
12:12 PM 46.4 °F 37.4 °F 39.2 °F 76% 29.47 in 10.0 mi West 28.8 mph 40.3 mph N/A Rain Light Rain
12:35 PM 46.4 °F 37.7 °F 39.2 °F 76% 29.48 in 10.0 mi WNW 26.5 mph 46.0 mph N/A   Overcast
12:54 PM 46.4 °F 37.7 °F 39.2 °F 76% 29.49 in 10.0 mi WNW 26.5 mph 41.4 mph N/A   Light Drizzle
1:14 PM 46.4 °F 38.1 °F 37.4 °F 71% 29.49 in 10.0 mi West 24.2 mph 42.6 mph N/A   Overcast
1:34 PM 48.2 °F - 37.4 °F 66% 29.49 in 10.0 mi West 29.9 mph 41.4 mph N/A   Overcast
1:54 PM 48.2 °F - 37.4 °F 66% 29.50 in 10.0 mi WNW 34.5 mph 41.4 mph N/A   Overcast
2:15 PM 48.2 °F - 37.4 °F 66% 29.51 in 10.0 mi West 28.8 mph 35.7 mph N/A   Overcast
2:34 PM 48.2 °F - 39.2 °F 71% 29.52 in 10.0 mi West 26.5 mph 40.3 mph N/A   Overcast
2:54 PM 48.2 °F - 37.4 °F 66% 29.52 in 10.0 mi West 28.8 mph 35.7 mph N/A   Overcast
3:15 PM 48.2 °F - 37.4 °F 66% 29.53 in 10.0 mi West 19.6 mph 36.8 mph N/A Rain Light Rain
3:34 PM 50.0 °F - 37.4 °F 62% 29.54 in 10.0 mi WNW 24.2 mph 34.5 mph N/A   Overcast
3:54 PM 48.2 °F - 37.4 °F 66% 29.55 in 10.0 mi West 29.9 mph 40.3 mph N/A   Overcast
4:14 PM 48.2 °F - 37.4 °F 66% 29.55 in 10.0 mi West 32.2 mph 41.4 mph N/A   Overcast
4:34 PM 50.0 °F - 37.4 °F 62% 29.56 in 10.0 mi West 27.6 mph 41.4 mph N/A   Overcast
4:55 PM 50.0 °F - 35.6 °F 58% 29.57 in 10.0 mi West 24.2 mph 36.8 mph N/A   Overcast
5:14 PM 50.0 °F - 35.6 °F 58% 29.57 in 10.0 mi West 35.7 mph 40.3 mph N/A   Overcast
5:34 PM 50.0 °F - 35.6 °F 58% 29.58 in 10.0 mi WNW 25.3 mph 34.5 mph N/A   Overcast
5:55 PM 50.0 °F - 35.6 °F 58% 29.59 in 10.0 mi West 25.3 mph 31.1 mph N/A   Overcast
6:14 PM 50.0 °F - 35.6 °F 58% 29.59 in 10.0 mi WNW 21.9 mph 29.9 mph N/A   Overcast
6:34 PM 50.0 °F - 35.6 °F 58% 29.60 in 10.0 mi West 20.7 mph 33.4 mph N/A   Overcast
6:55 PM 50.0 °F - 33.8 °F 54% 29.61 in 10.0 mi West 25.3 mph 33.4 mph N/A   Overcast
7:14 PM 50.0 °F - 33.8 °F 54% 29.62 in 10.0 mi West 28.8 mph 35.7 mph N/A   Overcast
7:34 PM 50.0 °F - 33.8 °F 54% 29.63 in 10.0 mi West 27.6 mph 36.8 mph N/A   Overcast
8:14 PM 50.0 °F - 35.6 °F 58% 29.64 in 10.0 mi West 23.0 mph 28.8 mph N/A   Overcast
8:34 PM 50.0 °F - 33.8 °F 54% 29.64 in 10.0 mi West 23.0 mph 34.5 mph N/A   Overcast
8:55 PM 50.0 °F - 35.6 °F 58% 29.65 in 10.0 mi West 26.5 mph 39.1 mph N/A   Overcast
9:14 PM 50.0 °F - 33.8 °F 54% 29.66 in 10.0 mi West 26.5 mph 36.8 mph N/A   Overcast
9:35 PM 50.0 °F - 35.6 °F 58% 29.66 in 10.0 mi WNW 26.5 mph 29.9 mph N/A   Overcast
9:55 PM 50.0 °F - 33.8 °F 54% 29.66 in 10.0 mi West 23.0 mph 32.2 mph N/A   Overcast
10:14 PM 50.0 °F - 35.6 °F 58% 29.66 in 10.0 mi West 20.7 mph 29.9 mph N/A   Overcast
10:55 PM 48.2 °F - 37.4 °F 66% 29.66 in 10.0 mi West 17.3 mph 20.7 mph N/A   Clear
11:14 PM 48.2 °F - 37.4 °F 66% 29.66 in 10.0 mi West 10.4 mph - N/A   Clear
11:35 PM 50.0 °F - 37.4 °F 62% 29.66 in 10.0 mi West 15.0 mph 26.5 mph N/A   Clear